This is the latest recevied weather packets stored in our database for station/object N9BLE. If no packets are shown the sender has not sent any weather packets the latest 10 day(s).
| Time | Temp. | Humidity | Pressure | Rain* | Wind** | Luminosity | Snow |
|---|---|---|---|---|---|---|---|
| 1777932668 | 25° C | 36% | 1001.9 hPa | 0 mm | - | 57 W/m² | - |
| 1777932364 | 25° C | 35% | 1001.7 hPa | 0 mm | - | 50 W/m² | - |
| 1777932062 | 25° C | 38% | 1002 hPa | 0 mm | - | 59 W/m² | - |
| 1777931758 | 26.11° C | 34% | 1001.7 hPa | 0 mm | - | 93 W/m² | - |
| 1777931455 | 25.56° C | 34% | 1001.7 hPa | 0 mm | - | 125 W/m² | - |
| 1777931151 | 25° C | 34% | 1001.9 hPa | 0 mm | - | 184 W/m² | - |
| 1777930848 | 24.44° C | 37% | 1002 hPa | 0 mm | - | 104 W/m² | - |
| 1777930544 | 25.56° C | 35% | 1002 hPa | 0 mm | - | 63 W/m² | - |
| 1777930241 | 26.67° C | 35% | 1002 hPa | 0 mm | - | 122 W/m² | - |
| 1777929937 | 25.56° C | 35% | 1002.2 hPa | 0 mm | - | 486 W/m² | - |
| 1777929635 | 25.56° C | 33% | 1002.2 hPa | 0 mm | - | 290 W/m² | - |
| 1777929331 | 25.56° C | 34% | 1002.1 hPa | 0 mm | - | 145 W/m² | - |
| 1777929028 | 26.11° C | 34% | 1002.2 hPa | 0 mm | - | 193 W/m² | - |
| 1777928725 | 26.11° C | 35% | 1002.2 hPa | 0 mm | - | 175 W/m² | - |
| 1777928422 | 26.67° C | 34% | 1002.4 hPa | 0 mm | - | 190 W/m² | - |
| 1777928120 | 25.56° C | 34% | 1002.4 hPa | 0 mm | - | 193 W/m² | - |
| 1777927818 | 26.11° C | 33% | 1002.5 hPa | 0 mm | - | 157 W/m² | - |
| 1777927515 | 26.11° C | 33% | 1002.6 hPa | 0 mm | - | 216 W/m² | - |
| 1777927214 | 26.67° C | 34% | 1002.5 hPa | 0 mm | - | 272 W/m² | - |
| 1777926912 | 26.67° C | 29% | 1002.7 hPa | 0 mm | - | 689 W/m² | - |
| 1777926609 | 25.56° C | 37% | 1002.5 hPa | 0 mm | - | 201 W/m² | - |
| 1777926304 | 26.11° C | 36% | 1002.9 hPa | 0 mm | - | 196 W/m² | - |
| 1777926001 | 25.56° C | 35% | 1002.7 hPa | 0 mm | - | 156 W/m² | - |
| 1777925698 | 25.56° C | 36% | 1002.9 hPa | 0 mm | - | 130 W/m² | - |
| 1777925396 | 25.56° C | 33% | 1003 hPa | 0 mm | - | 130 W/m² | - |
* Rain latest hour (hover to see other rain measurements)
** Current wind speed in m/s (hover to see current wind gust speed)